createdAt,value
2023-01-08T00:01:39.702Z,7.56
2023-01-08T00:04:08.183Z,7.73
2023-01-08T00:06:38.405Z,7.36
2023-01-08T00:09:06.948Z,7.30
2023-01-08T00:11:35.234Z,7.28
2023-01-08T00:14:03.820Z,7.02
2023-01-08T00:16:32.748Z,7.28
2023-01-08T00:19:01.181Z,7.29
2023-01-08T00:21:30.178Z,7.47
2023-01-08T00:23:59.961Z,7.39
2023-01-08T00:26:28.332Z,7.24
2023-01-08T00:28:57.391Z,7.49
2023-01-08T00:31:25.758Z,7.35
2023-01-08T00:33:54.206Z,7.29
2023-01-08T00:36:22.619Z,7.19
2023-01-08T00:38:51.031Z,6.84
2023-01-08T00:41:20.756Z,6.94
2023-01-08T00:43:49.129Z,7.03
2023-01-08T00:46:17.528Z,6.79
2023-01-08T00:48:46.263Z,6.05
2023-01-08T00:51:15.168Z,6.46
2023-01-08T00:53:43.977Z,6.36
2023-01-08T00:56:13.069Z,6.36
2023-01-08T00:58:42.887Z,6.21
2023-01-08T01:01:13.461Z,6.31
2023-01-08T01:03:42.770Z,6.61
2023-01-08T01:06:13.650Z,6.61
2023-01-08T01:08:44.239Z,6.48
2023-01-08T01:11:18.992Z,6.54
2023-01-08T01:13:49.309Z,5.99
2023-01-08T01:16:18.515Z,6.18
2023-01-08T01:18:46.975Z,6.05
2023-01-08T01:21:25.339Z,6.35
2023-01-08T01:23:56.150Z,6.11
2023-01-08T01:26:25.896Z,6.18
2023-01-08T01:28:57.979Z,6.35
2023-01-08T01:31:30.165Z,6.29
2023-01-08T01:33:58.999Z,6.63
2023-01-08T01:36:28.442Z,6.69
2023-01-08T01:38:59.406Z,6.45
2023-01-08T01:41:31.753Z,6.77
2023-01-08T01:44:36.363Z,6.75
2023-01-08T01:47:11.989Z,6.75
2023-01-08T01:49:42.763Z,6.78
2023-01-08T01:52:12.966Z,6.79
2023-01-08T01:54:41.388Z,6.61
2023-01-08T01:57:11.901Z,7.04
2023-01-08T01:59:43.031Z,7.09
2023-01-08T02:02:11.500Z,6.88
2023-01-08T02:04:40.078Z,6.88
2023-01-08T02:07:15.996Z,7.15
2023-01-08T02:09:51.372Z,7.11
2023-01-08T02:12:31.658Z,7.09
2023-01-08T02:15:14.472Z,7.02
2023-01-08T02:17:50.632Z,7.25
2023-01-08T02:20:27.759Z,7.29
2023-01-08T02:23:12.422Z,7.37
2023-01-08T02:26:09.994Z,7.31
2023-01-08T02:28:43.900Z,7.19
2023-01-08T02:31:14.233Z,7.40
2023-01-08T02:33:42.877Z,7.36
2023-01-08T02:36:36.897Z,6.87
2023-01-08T02:39:31.741Z,7.05
2023-01-08T02:42:12.124Z,6.93
2023-01-08T02:44:56.798Z,6.73
2023-01-08T02:47:33.095Z,6.63
2023-01-08T02:50:14.792Z,6.47
2023-01-08T02:52:56.695Z,6.73
2023-01-08T02:55:27.268Z,6.62
2023-01-08T02:57:57.734Z,6.74
2023-01-08T03:00:27.053Z,6.57
2023-01-08T03:03:08.980Z,6.46
2023-01-08T03:05:39.085Z,6.38
2023-01-08T03:08:07.725Z,6.05
2023-01-08T03:10:40.145Z,6.12
2023-01-08T03:13:17.179Z,6.28
2023-01-08T03:15:52.739Z,6.30
2023-01-08T03:18:28.982Z,5.94
2023-01-08T03:20:57.772Z,6.38
2023-01-08T03:23:27.834Z,6.18
2023-01-08T03:25:56.245Z,5.99
2023-01-08T03:28:32.885Z,5.95
2023-01-08T03:31:02.879Z,6.34
2023-01-08T03:33:32.980Z,6.14
2023-01-08T03:36:05.393Z,6.18
2023-01-08T03:38:39.157Z,6.29
2023-01-08T03:41:12.080Z,6.36
2023-01-08T03:43:42.127Z,6.44
2023-01-08T03:46:17.770Z,6.21
2023-01-08T03:48:47.228Z,6.06
2023-01-08T03:51:15.807Z,5.64
2023-01-08T03:53:44.355Z,5.96
2023-01-08T03:56:12.682Z,5.87
2023-01-08T03:58:42.418Z,5.94
2023-01-08T04:01:11.005Z,5.98
2023-01-08T04:03:39.451Z,5.88
2023-01-08T04:06:08.412Z,6.08
2023-01-08T04:08:36.845Z,5.97
2023-01-08T04:11:05.279Z,5.98
2023-01-08T04:13:33.654Z,5.91
2023-01-08T04:16:03.457Z,5.83
2023-01-08T04:18:32.118Z,5.66
2023-01-08T04:21:00.586Z,5.85
2023-01-08T04:23:29.025Z,5.77
2023-01-08T04:25:57.469Z,5.95
2023-01-08T04:28:26.014Z,5.64
2023-01-08T04:30:54.437Z,5.68
2023-01-08T04:33:25.464Z,5.93
2023-01-08T04:35:53.817Z,5.87
2023-01-08T04:38:22.354Z,5.61
2023-01-08T04:40:50.689Z,6.13
2023-01-08T04:43:19.127Z,6.23
2023-01-08T04:45:47.436Z,6.37
2023-01-08T04:48:15.929Z,6.37
2023-01-08T04:50:45.636Z,6.20
2023-01-08T04:53:14.038Z,6.26
2023-01-08T04:55:42.445Z,5.86
2023-01-08T04:58:10.949Z,6.23
2023-01-08T05:00:41.187Z,6.01
2023-01-08T05:03:09.725Z,6.17
2023-01-08T05:05:39.255Z,5.60
2023-01-08T05:08:09.028Z,5.63
2023-01-08T05:10:37.476Z,5.88
2023-01-08T05:13:05.886Z,5.96
2023-01-08T05:15:34.253Z,5.65
2023-01-08T05:18:04.994Z,5.36
2023-01-08T05:20:34.691Z,5.70
2023-01-08T05:23:03.388Z,5.59
2023-01-08T05:25:33.198Z,5.65
2023-01-08T05:28:02.947Z,5.18
2023-01-08T05:30:31.300Z,5.27
2023-01-08T05:32:59.753Z,5.33
2023-01-08T05:35:28.144Z,5.38
2023-01-08T05:37:56.544Z,4.85
2023-01-08T05:40:24.911Z,5.36
2023-01-08T05:42:54.639Z,5.36
2023-01-08T05:45:22.999Z,5.28
2023-01-08T05:47:51.356Z,5.25
2023-01-08T05:50:19.939Z,5.11
2023-01-08T05:52:48.296Z,5.09
2023-01-08T05:55:17.419Z,5.10
2023-01-08T05:57:46.282Z,5.07
2023-01-08T06:00:17.772Z,4.88
2023-01-08T06:02:48.801Z,4.55
2023-01-08T06:05:17.541Z,4.86
2023-01-08T06:07:46.020Z,4.58
2023-01-08T06:10:14.546Z,4.82
2023-01-08T06:12:43.115Z,4.73
2023-01-08T06:15:13.069Z,4.35
2023-01-08T06:17:43.340Z,4.57
2023-01-08T06:20:13.382Z,4.71
2023-01-08T06:22:41.753Z,4.57
2023-01-08T06:25:10.817Z,4.30
2023-01-08T06:27:40.630Z,4.56
2023-01-08T06:30:10.752Z,4.64
2023-01-08T06:32:39.112Z,4.70
2023-01-08T06:35:10.260Z,4.36
2023-01-08T06:37:38.889Z,4.45
2023-01-08T06:40:08.822Z,4.38
2023-01-08T06:42:37.175Z,4.47
2023-01-08T06:45:08.575Z,4.45
2023-01-08T06:47:37.135Z,4.52
2023-01-08T06:50:08.312Z,4.51
2023-01-08T06:52:36.755Z,4.21
2023-01-08T06:55:06.120Z,4.26
2023-01-08T06:57:34.548Z,4.46
2023-01-08T07:00:02.922Z,4.49
2023-01-08T07:02:31.377Z,4.21
2023-01-08T07:04:59.815Z,4.30
2023-01-08T07:07:29.596Z,4.09
2023-01-08T07:09:57.964Z,4.29
2023-01-08T07:12:26.670Z,4.22
2023-01-08T07:14:55.112Z,4.34
2023-01-08T07:17:23.461Z,4.32
2023-01-08T07:19:51.792Z,4.17
2023-01-08T07:22:21.129Z,4.17
2023-01-08T07:24:50.949Z,4.16
2023-01-08T07:27:19.380Z,4.28
2023-01-08T07:29:47.802Z,4.36
2023-01-08T07:32:16.230Z,4.23
2023-01-08T07:34:44.633Z,4.04
2023-01-08T07:37:13.115Z,4.07
2023-01-08T07:39:41.456Z,4.18
2023-01-08T07:42:11.356Z,3.97
2023-01-08T07:44:39.839Z,3.84
2023-01-08T07:47:08.282Z,4.09
2023-01-08T07:49:36.829Z,4.06
2023-01-08T07:52:05.563Z,3.89
2023-01-08T07:54:33.951Z,3.63
2023-01-08T07:57:02.328Z,3.98
2023-01-08T07:59:32.194Z,3.76
2023-01-08T08:02:00.758Z,3.75
2023-01-08T08:04:29.222Z,3.99
2023-01-08T08:06:57.874Z,3.81
2023-01-08T08:09:26.222Z,3.55
2023-01-08T08:11:54.595Z,3.35
2023-01-08T08:14:23.078Z,3.88
2023-01-08T08:16:53.130Z,3.66
2023-01-08T08:19:21.579Z,3.69
2023-01-08T08:21:49.992Z,3.81
2023-01-08T08:24:18.447Z,3.57
2023-01-08T08:26:46.908Z,3.78
2023-01-08T08:29:15.677Z,3.38
2023-01-08T08:31:44.176Z,3.65
2023-01-08T08:34:14.011Z,3.74
2023-01-08T08:36:42.414Z,3.43
2023-01-08T08:39:10.800Z,3.75
2023-01-08T08:41:39.227Z,3.72
2023-01-08T08:44:08.317Z,3.69
2023-01-08T08:46:37.033Z,3.66
2023-01-08T08:49:05.507Z,3.38
2023-01-08T08:51:35.540Z,3.60
2023-01-08T08:54:03.991Z,3.45
2023-01-08T08:56:32.426Z,3.24
2023-01-08T08:59:00.817Z,3.44
2023-01-08T09:01:29.295Z,3.59
2023-01-08T09:03:58.158Z,3.64
2023-01-08T09:06:27.775Z,3.37
2023-01-08T09:08:57.582Z,3.41
2023-01-08T09:11:26.137Z,3.49
2023-01-08T09:13:54.595Z,3.61
2023-01-08T09:16:23.043Z,3.57
2023-01-08T09:18:51.480Z,3.64
2023-01-08T09:21:19.824Z,4.11
2023-01-08T09:23:50.102Z,4.13
2023-01-08T09:26:19.849Z,3.65
2023-01-08T09:28:48.304Z,4.34
2023-01-08T09:31:16.723Z,3.99
2023-01-08T09:33:45.308Z,4.21
2023-01-08T09:36:13.674Z,4.47
2023-01-08T09:38:43.116Z,4.51
2023-01-08T09:41:17.874Z,4.29
2023-01-08T09:43:52.797Z,4.73
2023-01-08T09:46:25.800Z,4.64
2023-01-08T09:48:57.905Z,4.67
2023-01-08T09:51:34.969Z,4.64
2023-01-08T09:54:04.470Z,4.68
2023-01-08T09:56:36.200Z,4.86
2023-01-08T09:59:07.001Z,4.80
2023-01-08T10:01:39.962Z,4.56
2023-01-08T10:04:15.941Z,4.86
2023-01-08T10:06:53.092Z,5.10
2023-01-08T10:09:29.933Z,5.05
2023-01-08T10:12:03.901Z,5.04
2023-01-08T10:14:38.744Z,4.77
2023-01-08T10:17:17.405Z,5.08
2023-01-08T10:19:46.699Z,5.29
2023-01-08T10:22:19.666Z,5.11
2023-01-08T10:24:48.327Z,5.09
2023-01-08T10:27:20.223Z,5.36
2023-01-08T10:29:51.846Z,5.51
2023-01-08T10:32:26.875Z,5.31
2023-01-08T10:34:58.551Z,4.52
2023-01-08T10:37:30.588Z,5.62
2023-01-08T10:40:08.925Z,5.22
2023-01-08T10:42:38.707Z,5.68
2023-01-08T10:45:19.788Z,5.63
2023-01-08T10:47:50.694Z,5.43
2023-01-08T10:50:24.394Z,5.70
2023-01-08T10:52:58.449Z,5.71
2023-01-08T10:55:31.519Z,6.01
2023-01-08T10:58:02.750Z,5.96
2023-01-08T11:00:35.544Z,5.93
2023-01-08T11:03:08.779Z,5.64
2023-01-08T11:05:39.670Z,6.16
2023-01-08T11:08:15.824Z,6.18
2023-01-08T11:10:45.007Z,5.98
2023-01-08T11:13:20.772Z,6.36
2023-01-08T11:16:04.534Z,6.26
2023-01-08T11:18:37.727Z,6.07
2023-01-08T11:21:19.526Z,6.54
2023-01-08T11:23:48.310Z,6.73
2023-01-08T11:26:22.610Z,6.82
2023-01-08T11:28:59.535Z,6.94
2023-01-08T11:31:39.819Z,6.97
2023-01-08T11:34:17.147Z,7.27
2023-01-08T11:36:53.364Z,7.23
2023-01-08T11:39:21.785Z,7.35
2023-01-08T11:42:11.770Z,7.38
2023-01-08T11:44:50.064Z,7.34
2023-01-08T11:47:29.500Z,7.34
2023-01-08T11:50:25.866Z,7.06
2023-01-08T11:53:11.397Z,7.00
2023-01-08T11:55:55.188Z,7.07
2023-01-08T11:58:35.260Z,7.47
2023-01-08T12:01:28.794Z,7.62
2023-01-08T12:04:22.879Z,7.64
2023-01-08T12:07:00.133Z,7.40
2023-01-08T12:09:39.748Z,7.68
2023-01-08T12:12:25.893Z,7.83
2023-01-08T12:15:08.569Z,7.77
2023-01-08T12:18:06.129Z,7.95
2023-01-08T12:20:40.831Z,8.19
2023-01-08T12:23:40.900Z,8.41
2023-01-08T12:26:20.344Z,8.51
2023-01-08T12:29:27.415Z,8.32
2023-01-08T12:32:28.036Z,8.28
2023-01-08T12:35:03.776Z,8.74
2023-01-08T12:37:47.022Z,8.50
2023-01-08T12:40:21.763Z,8.44
2023-01-08T12:43:00.465Z,8.78
2023-01-08T12:45:33.992Z,8.43
2023-01-08T12:48:09.532Z,9.08
2023-01-08T12:50:50.576Z,8.75
2023-01-08T12:53:32.675Z,8.92
2023-01-08T12:56:10.023Z,8.64
2023-01-08T12:59:06.904Z,8.95
2023-01-08T13:01:44.964Z,8.60
2023-01-08T13:04:14.615Z,9.00
2023-01-08T13:06:52.985Z,9.20
2023-01-08T13:09:27.741Z,8.92
2023-01-08T13:11:59.596Z,9.00
2023-01-08T13:14:28.721Z,8.65
2023-01-08T13:17:06.360Z,8.68
2023-01-08T13:19:43.342Z,8.32
2023-01-08T13:22:27.294Z,8.50
2023-01-08T13:25:28.849Z,8.60
2023-01-08T13:27:58.125Z,8.41
2023-01-08T13:30:43.112Z,8.73
2023-01-08T13:33:29.257Z,8.65
2023-01-08T13:36:23.710Z,8.43
2023-01-08T13:39:23.164Z,8.70
2023-01-08T13:42:23.129Z,8.93
2023-01-08T13:44:53.835Z,9.10
2023-01-08T13:47:32.052Z,9.10
2023-01-08T13:50:04.331Z,8.63
2023-01-08T13:52:43.640Z,8.79
2023-01-08T13:55:19.466Z,8.48
2023-01-08T13:57:54.019Z,8.60
2023-01-08T14:00:30.826Z,8.76
2023-01-08T14:02:59.249Z,8.67
2023-01-08T14:05:30.845Z,8.61
2023-01-08T14:07:59.902Z,8.81
2023-01-08T14:10:30.249Z,8.55
2023-01-08T14:13:07.855Z,8.45
2023-01-08T14:15:39.623Z,8.60
2023-01-08T14:18:08.378Z,8.27
2023-01-08T14:20:40.284Z,8.18
2023-01-08T14:23:18.725Z,8.39
2023-01-08T14:25:49.913Z,8.30
2023-01-08T14:28:24.016Z,8.12
2023-01-08T14:30:54.523Z,7.98
2023-01-08T14:33:30.332Z,7.92
2023-01-08T14:35:59.405Z,8.23
2023-01-08T14:38:27.907Z,8.16
2023-01-08T14:41:03.790Z,8.07
2023-01-08T14:43:36.542Z,8.09
2023-01-08T14:46:05.180Z,8.04
2023-01-08T14:48:42.610Z,7.68
2023-01-08T14:51:16.844Z,7.83
2023-01-08T14:53:48.496Z,7.76
2023-01-08T14:56:22.252Z,7.71
2023-01-08T14:58:54.390Z,7.50
2023-01-08T15:01:26.120Z,7.48
2023-01-08T15:04:07.538Z,7.50
2023-01-08T15:06:36.631Z,7.46
2023-01-08T15:09:22.530Z,7.43
2023-01-08T15:11:55.887Z,7.37
2023-01-08T15:14:29.112Z,7.25
2023-01-08T15:16:59.713Z,6.92
2023-01-08T15:19:30.432Z,7.05
2023-01-08T15:22:02.010Z,6.93
2023-01-08T15:24:33.142Z,7.08
2023-01-08T15:27:09.960Z,7.01
2023-01-08T15:29:50.301Z,6.86
2023-01-08T15:32:27.272Z,6.57
2023-01-08T15:34:55.832Z,6.51
2023-01-08T15:37:24.257Z,6.70
2023-01-08T15:39:52.635Z,6.75
2023-01-08T15:42:41.548Z,6.67
2023-01-08T15:45:16.250Z,6.30
2023-01-08T15:47:44.794Z,6.70
2023-01-08T15:50:13.713Z,6.22
2023-01-08T15:52:44.713Z,6.53
2023-01-08T15:55:18.268Z,6.58
2023-01-08T15:57:46.810Z,6.43
2023-01-08T16:00:19.867Z,6.21
2023-01-08T16:02:50.687Z,5.93
2023-01-08T16:05:21.108Z,5.68
2023-01-08T16:07:49.947Z,5.62
2023-01-08T16:10:19.349Z,5.80
2023-01-08T16:12:48.414Z,6.02
2023-01-08T16:15:18.856Z,6.27
2023-01-08T16:17:47.418Z,6.32
2023-01-08T16:20:16.981Z,6.34
2023-01-08T16:22:45.669Z,6.36
2023-01-08T16:25:14.366Z,6.76
2023-01-08T16:27:43.837Z,6.82
2023-01-08T16:30:15.599Z,6.69
2023-01-08T16:32:46.667Z,6.91
2023-01-08T16:35:15.141Z,6.56
2023-01-08T16:37:43.679Z,6.54
2023-01-08T16:40:14.246Z,6.92
2023-01-08T16:42:42.867Z,6.87
2023-01-08T16:45:12.034Z,6.93
2023-01-08T16:47:41.272Z,6.85
2023-01-08T16:50:12.711Z,7.06
2023-01-08T16:52:41.176Z,7.03
2023-01-08T16:55:11.871Z,6.94
2023-01-08T16:57:40.277Z,6.82
2023-01-08T17:00:10.753Z,7.06
2023-01-08T17:02:39.253Z,6.88
2023-01-08T17:05:10.595Z,7.16
2023-01-08T17:07:39.114Z,7.14
2023-01-08T17:10:09.112Z,6.68
2023-01-08T17:12:37.514Z,7.17
2023-01-08T17:15:07.534Z,7.19
2023-01-08T17:17:36.321Z,7.17
2023-01-08T17:20:05.452Z,6.87
2023-01-08T17:22:35.366Z,6.97
2023-01-08T17:25:04.513Z,7.06
2023-01-08T17:27:37.859Z,6.95
2023-01-08T17:30:08.333Z,6.93
2023-01-08T17:32:37.394Z,6.97
2023-01-08T17:35:07.385Z,6.77
2023-01-08T17:37:38.247Z,6.79
2023-01-08T17:40:08.387Z,6.88
2023-01-08T17:42:36.857Z,7.00
2023-01-08T17:45:06.870Z,6.61
2023-01-08T17:47:37.578Z,6.91
2023-01-08T17:50:06.924Z,6.63
2023-01-08T17:52:38.417Z,6.47
2023-01-08T17:55:07.982Z,6.60
2023-01-08T17:57:36.406Z,7.02
2023-01-08T18:00:06.065Z,6.98
2023-01-08T18:02:34.640Z,7.08
2023-01-08T18:05:03.051Z,7.24
2023-01-08T18:07:34.271Z,7.21
2023-01-08T18:10:04.756Z,7.20
2023-01-08T18:12:33.103Z,6.96
2023-01-08T18:15:01.462Z,7.29
2023-01-08T18:17:32.063Z,7.01
2023-01-08T18:20:00.495Z,7.03
2023-01-08T18:22:28.965Z,6.83
2023-01-08T18:24:59.252Z,6.73
2023-01-08T18:27:29.129Z,6.78
2023-01-08T18:29:57.601Z,6.64
2023-01-08T18:32:26.229Z,6.62
2023-01-08T18:34:55.767Z,6.19
2023-01-08T18:37:24.998Z,6.39
2023-01-08T18:39:53.503Z,6.25
2023-01-08T18:42:27.740Z,6.27
2023-01-08T18:44:58.772Z,6.00
2023-01-08T18:47:28.871Z,6.11
2023-01-08T18:50:03.023Z,6.17
2023-01-08T18:52:31.998Z,6.26
2023-01-08T18:55:00.514Z,6.45
2023-01-08T18:57:29.595Z,6.34
2023-01-08T18:59:59.489Z,6.44
2023-01-08T19:02:30.073Z,6.32
2023-01-08T19:04:58.632Z,6.23
2023-01-08T19:07:27.208Z,6.54
2023-01-08T19:09:56.893Z,6.45
2023-01-08T19:12:27.305Z,6.71
2023-01-08T19:14:55.940Z,6.58
2023-01-08T19:17:26.005Z,6.61
2023-01-08T19:19:54.412Z,6.41
2023-01-08T19:22:26.613Z,6.35
2023-01-08T19:24:56.076Z,6.63
2023-01-08T19:27:26.003Z,6.47
2023-01-08T19:29:55.017Z,6.47
2023-01-08T19:32:23.404Z,6.42
2023-01-08T19:34:53.908Z,6.51
2023-01-08T19:37:22.326Z,6.47
2023-01-08T19:39:50.740Z,6.47
2023-01-08T19:42:36.744Z,6.49
2023-01-08T19:45:06.215Z,6.35
2023-01-08T19:47:34.626Z,6.58
2023-01-08T19:50:04.835Z,6.63
2023-01-08T19:52:33.604Z,6.61
2023-01-08T19:55:02.100Z,6.60
2023-01-08T19:57:30.771Z,6.58
2023-01-08T19:59:59.665Z,6.31
2023-01-08T20:02:28.128Z,6.34
2023-01-08T20:04:56.840Z,6.17
2023-01-08T20:07:26.615Z,6.05
2023-01-08T20:09:55.422Z,5.91
2023-01-08T20:12:24.089Z,5.77
2023-01-08T20:14:52.438Z,5.82
2023-01-08T20:17:25.072Z,5.79
2023-01-08T20:19:53.889Z,5.50
2023-01-08T20:22:22.314Z,5.64
2023-01-08T20:24:52.576Z,4.88
2023-01-08T20:27:21.134Z,5.63
2023-01-08T20:29:49.795Z,5.54
2023-01-08T20:32:20.433Z,5.44
2023-01-08T20:34:50.627Z,5.36
2023-01-08T20:37:19.208Z,5.37
2023-01-08T20:39:47.742Z,5.41
2023-01-08T20:42:32.475Z,5.43
2023-01-08T20:45:01.659Z,5.37
2023-01-08T20:47:34.848Z,5.49
2023-01-08T20:50:12.398Z,5.37
2023-01-08T20:52:47.537Z,5.67
2023-01-08T20:55:17.468Z,5.57
2023-01-08T20:57:48.239Z,5.45
2023-01-08T21:00:18.465Z,5.49
2023-01-08T21:02:46.999Z,5.41
2023-01-08T21:05:15.662Z,5.61
2023-01-08T21:07:44.134Z,5.77
2023-01-08T21:10:13.221Z,5.56
2023-01-08T21:12:41.672Z,5.81
2023-01-08T21:15:13.010Z,5.67
2023-01-08T21:17:41.365Z,5.80
2023-01-08T21:20:12.272Z,6.13
2023-01-08T21:22:40.681Z,6.16
2023-01-08T21:25:11.216Z,6.11
2023-01-08T21:27:39.698Z,6.26
2023-01-08T21:30:12.991Z,6.29
2023-01-08T21:32:41.393Z,6.30
2023-01-08T21:35:10.486Z,6.37
2023-01-08T21:37:39.051Z,6.38
2023-01-08T21:40:11.309Z,6.20
2023-01-08T21:42:57.188Z,6.19
2023-01-08T21:45:27.562Z,6.28
2023-01-08T21:47:58.541Z,5.93
2023-01-08T21:50:27.712Z,6.14
2023-01-08T21:53:13.815Z,6.14
2023-01-08T21:55:42.976Z,5.78
2023-01-08T21:58:11.468Z,6.12
2023-01-08T22:00:41.329Z,6.05
2023-01-08T22:03:09.812Z,5.81
2023-01-08T22:05:38.226Z,5.75
2023-01-08T22:08:08.792Z,5.59
2023-01-08T22:10:37.177Z,5.55
2023-01-08T22:13:07.202Z,5.48
2023-01-08T22:15:35.702Z,5.30
2023-01-08T22:18:05.488Z,5.40
2023-01-08T22:20:34.034Z,5.48
2023-01-08T22:23:02.447Z,5.47
2023-01-08T22:25:30.891Z,5.55
2023-01-08T22:27:59.359Z,5.53
2023-01-08T22:30:27.774Z,5.72
2023-01-08T22:32:56.345Z,5.34
2023-01-08T22:35:26.155Z,5.85
2023-01-08T22:37:54.487Z,5.90
2023-01-08T22:40:22.849Z,5.73
2023-01-08T22:42:51.565Z,5.33
2023-01-08T22:45:20.078Z,5.50
2023-01-08T22:47:48.630Z,5.47
2023-01-08T22:50:17.944Z,5.52
2023-01-08T22:52:47.722Z,5.27
2023-01-08T22:55:16.246Z,5.51
2023-01-08T22:57:44.543Z,5.53
2023-01-08T23:00:14.378Z,5.38
2023-01-08T23:02:42.928Z,5.24
2023-01-08T23:05:11.404Z,5.21
2023-01-08T23:07:39.773Z,5.11
2023-01-08T23:10:11.899Z,5.00
2023-01-08T23:12:40.321Z,5.02
2023-01-08T23:15:10.274Z,5.20
2023-01-08T23:17:47.954Z,5.12
2023-01-08T23:20:21.334Z,4.71
2023-01-08T23:22:50.721Z,4.63
2023-01-08T23:25:20.669Z,4.81
2023-01-08T23:27:49.381Z,4.82
2023-01-08T23:30:18.556Z,4.41
2023-01-08T23:32:46.962Z,4.47
2023-01-08T23:35:15.383Z,4.57
2023-01-08T23:37:43.922Z,4.43
2023-01-08T23:40:14.143Z,4.33
2023-01-08T23:42:44.272Z,4.22
2023-01-08T23:45:13.262Z,4.13
2023-01-08T23:47:41.790Z,4.36
2023-01-08T23:50:12.174Z,4.28
2023-01-08T23:52:40.552Z,4.22
2023-01-08T23:55:10.054Z,4.29
2023-01-08T23:57:38.438Z,4.27
